Latest Coastal Weather Observations for Truscott

IDD60701

Issued at 6:05 pm CST Sunday 23 November 2014 (issued every 10 minutes, with the page automatically refreshed every 10 minutes)

About coastal observations | Map of coastal stations | Coastal observations for NT | Marine services | Other Formats
Station Details ID: 001020 Name: TRUSCOTT Lat: -14.09 Lon: 126.39 Height: 51.0 m
Data from the previous 72 hours. | See also: Recent months at Truscott
Date/Time
CST
Temp

°C
Wind Pressure Rain
since 9am
mm
Weather Cloud Vis
km
Sea
Height
m
Swell
Dir
 
Speed
knots
Gust
knots
hPa Trend Height
m
Period
s
Dir
23/06:00pm 32.0 N 7 9 1008.0 - 0.0 - - 10 - - - -
23/05:30pm 32.5 NNW 5 7 1007.6 - 0.0 - Partly cloudy 10 - - - -
23/05:00pm 32.3 N 9 13 1007.1 - 0.0 - - 10 - - - -
23/04:30pm 33.4 NNW 8 12 1006.8 - 0.0 - - 10 - - - -
23/04:00pm 32.4 N 10 14 1007.0 - 0.0 - - 10 - - - -
23/03:30pm 33.7 N 10 15 1007.4 - 0.0 - - 10 - - - -
23/03:01pm 34.0 N 10 14 1007.6 - 0.0 - - 10 - - - -
23/03:00pm 33.9 N 9 14 1007.6 - 0.0 - - 10 - - - -
23/02:47pm 33.3 N 9 13 1007.8 - 0.0 - - 5 - - - -
23/02:30pm 34.2 NNW 10 15 1008.2 - 0.0 - - 10 - - - -
23/02:00pm 34.5 N 10 15 1008.7 - 0.0 - - 10 - - - -
23/01:30pm 33.8 N 8 13 1008.6 - 0.0 - - 10 - - - -
23/01:00pm 34.0 N 9 14 1009.5 - 0.0 - - 10 - - - -
23/12:30pm 34.0 N 9 15 1009.8 - 0.0 - Partly cloudy 10 - - - -
23/12:00pm 33.7 NW 7 9 1009.9 - 0.0 - Partly cloudy 10 - - - -
23/11:30am 34.3 W 6 10 1010.0 - 0.0 - - 10 - - - -
23/11:00am 34.5 W 7 11 1010.4 - 0.0 - - 10 - - - -
23/10:30am 33.2 WNW 6 9 1010.2 - 0.0 - - 10 - - - -
23/10:00am 32.7 W 5 8 1010.7 - 0.0 - - 10 - - - -
23/09:30am 32.1 SW 3 5 1010.9 - 0.0 - - 10 - - - -
23/09:00am 31.3 SSW 5 7 1010.7 - 0.0 - - 10 - - - -
23/08:30am 30.5 SW 5 7 1010.7 - 0.0 - - 10 - - - -
23/08:00am 29.6 S 4 5 1010.5 - 0.0 - - 10 - - - -
23/07:30am 28.5 S 4 6 1009.7 - 0.0 - - 10 - - - -
23/07:00am 27.5 S 3 5 1009.8 - 0.0 - - 10 - - - -
23/06:30am 26.6 S 3 4 1009.5 - 0.0 - - 10 - - - -
23/06:00am 27.3 SSW 4 5 1009.3 - 0.0 - - 10 - - - -
23/05:30am 26.6 CALM 0 0 1009.1 - 0.0 - - 10 - - - -
23/05:19am 26.5 CALM 0 0 1009.1 - 0.0 - - 10 - - - -
23/05:09am 26.7 CALM 0 0 1009.2 - 0.0 - - 5 - - - -
23/05:00am 26.7 SE 2 4 1009.2 - 0.0 - - 8 - - - -
23/04:30am 26.8 CALM 0 0 1008.4 - 0.0 - - 10 - - - -
23/04:00am 26.8 S 3 4 1009.2 - 0.0 - - 10 - - - -
23/03:30am 27.2 CALM 0 0 1009.3 - 0.0 - - 10 - - - -
23/03:00am 27.2 CALM 0 0 1009.7 - 0.0 - - 10 - - - -
23/02:30am 27.5 SE 1 3 1009.9 - 0.0 - Partly cloudy 10 - - - -
23/02:00am 27.7 CALM 0 0 1010.3 - 0.0 - Partly cloudy 10 - - - -
23/01:30am 27.9 S 2 5 1009.9 - 0.0 - Mostly clear 10 - - - -
23/01:00am 28.3 W 2 4 1010.4 - 0.0 - - 10 - - - -
23/12:30am 28.6 SW 4 6 1010.8 - 0.0 - Partly cloudy 10 - - - -
23/12:00am 28.7 WNW 2 5 1011.3 - 0.0 - - 10 - - - -
 
Date/Time
CST
Temp

°C
Wind Pressure Rain
since 9am
mm
Weather Cloud Vis
km
Sea
Height
m
Swell
Dir
 
Speed
knots
Gust
knots
hPa Trend Height
m
Period
s
Dir
22/11:30pm 28.7 NW 5 7 1011.1 - 0.0 - - 10 - - - -
22/11:00pm 28.9 NW 5 7 1011.3 - 0.0 - - 10 - - - -
22/10:30pm 29.1 WNW 5 7 1010.6 - 0.0 - - 10 - - - -
22/10:00pm 29.0 NW 5 9 1011.1 - 0.0 - - 10 - - - -
22/09:30pm 29.0 N 5 8 1011.0 - 0.0 - - 10 - - - -
22/09:00pm 29.1 N 5 7 1010.8 - 0.0 - - 10 - - - -
22/08:30pm 29.3 NW 6 9 1010.6 - 0.0 - Partly cloudy 10 - - - -
22/08:00pm 29.4 NNW 5 7 1010.1 - 0.0 - Partly cloudy 10 - - - -
22/07:30pm 29.6 NNW 5 8 1009.1 - 0.0 - Mostly clear 10 - - - -
22/07:00pm 29.9 NNW 7 11 1009.1 - 0.0 - - 10 - - - -
22/06:30pm 30.3 NNW 9 13 1008.3 - 0.0 - - 10 - - - -
22/06:00pm 31.0 NNW 10 15 1008.0 - 0.0 - - 10 - - - -
22/05:30pm 31.4 N 10 15 1007.8 - 0.0 - - 10 - - - -
22/05:00pm 31.9 NNW 10 15 1007.6 - 0.0 - - 10 - - - -
22/04:30pm 32.4 NNW 11 16 1007.1 - 0.0 - - 10 - - - -
22/04:00pm 32.9 NNW 11 17 1007.9 - 0.0 - - 10 - - - -
22/03:30pm 33.8 N 10 16 1008.5 - 0.0 - - 10 - - - -
22/03:00pm 33.5 NNW 11 16 1008.8 - 0.0 - - 10 - - - -
22/02:30pm 34.4 NNW 8 12 1009.2 - 0.0 - - 10 - - - -
22/02:00pm 34.4 NNW 9 15 1009.4 - 0.0 - - 10 - - - -
22/01:30pm 34.8 NW 7 11 1009.0 - 0.0 - - 10 - - - -
22/01:00pm 34.6 NNW 7 11 1009.9 - 0.0 - - 10 - - - -
22/12:30pm 33.8 NNW 8 12 1010.4 - 0.0 - - 10 - - - -
22/12:00pm 34.1 NNW 8 11 1010.8 - 0.0 - - 10 - - - -
22/11:30am 34.4 N 7 11 1010.8 - 0.0 - - 10 - - - -
22/11:00am 34.1 NW 5 9 1011.2 - 0.0 - - 10 - - - -
22/10:30am 33.9 W 6 9 1010.6 - 0.0 - - 10 - - - -
22/10:00am 33.2 SSW 4 8 1011.6 - 0.0 - - 10 - - - -
22/09:30am 31.8 WNW 4 7 1011.4 - 0.0 - - 10 - - - -
22/09:00am 31.3 S 3 6 1011.4 - 0.0 - Partly cloudy 10 - - - -
22/08:30am 30.5 S 3 6 1011.0 - 0.0 - - 10 - - - -
22/08:00am 29.6 S 3 5 1010.6 - 0.0 - - 10 - - - -
22/07:30am 28.3 S 2 3 1009.4 - 0.0 - - 10 - - - -
22/07:00am 26.5 CALM 0 0 1009.7 - 0.0 - - 10 - - - -
22/06:30am 25.9 CALM 0 0 1009.4 - 0.0 - - 10 - - - -
22/06:00am 26.1 CALM 0 0 1009.2 - 0.0 - - 10 - - - -
22/05:30am 26.4 CALM 0 0 1009.0 - 0.0 - - 10 - - - -
22/05:00am 26.7 S 3 4 1008.6 - 0.0 - - 10 - - - -
22/04:30am 26.8 S 3 5 1007.9 - 0.0 - - 10 - - - -
22/04:00am 27.4 SSW 3 5 1008.4 - 0.0 - Partly cloudy 10 - - - -
22/03:30am 26.9 CALM 0 5 1008.5 - 0.0 - - 10 - - - -
22/03:00am 27.9 WSW 2 5 1008.7 - 0.0 - - 10 - - - -
22/02:30am 28.5 W 3 5 1008.8 - 0.0 - - 10 - - - -
22/02:00am 28.8 WSW 3 4 1009.2 - 0.0 - - 10 - - - -
22/01:30am 29.1 W 4 6 1008.8 - 0.0 - - 10 - - - -
22/01:00am 29.2 W 5 7 1009.8 - 0.0 - - 10 - - - -
22/12:30am 29.3 W 5 7 1010.1 - 0.0 - Partly cloudy 10 - - - -
22/12:00am 29.3 W 4 6 1010.3 - 0.0 - Partly cloudy 10 - - - -
 
Date/Time
CST
Temp

°C
Wind Pressure Rain
since 9am
mm
Weather Cloud Vis
km
Sea
Height
m
Swell
Dir
 
Speed
knots
Gust
knots
hPa Trend Height
m
Period
s
Dir
21/11:30pm 29.4 W 5 7 1010.2 - 0.0 - Partly cloudy 10 - - - -
21/11:00pm 29.2 WNW 5 7 1010.2 - 0.0 - Partly cloudy 10 - - - -
21/10:30pm 29.1 NW 5 7 1009.5 - 0.0 - - 10 - - - -
21/10:00pm 29.3 NW 5 8 1010.3 - 0.0 - - 10 - - - -
21/09:30pm 29.2 NW 5 8 1010.2 - 0.0 - - 10 - - - -
21/09:00pm 29.3 NW 6 9 1009.9 - 0.0 - - 10 - - - -
21/08:30pm 29.4 NW 6 8 1009.7 - 0.0 - - 10 - - - -
21/08:00pm 29.6 NNW 6 8 1009.3 - 0.0 - Partly cloudy 10 - - - -
21/07:58pm 29.7 NNW 5 8 1009.2 - 0.0 - Partly cloudy 10 - - - -
21/07:30pm 29.9 NNW 6 9 1008.5 - 0.0 - Partly cloudy 10 - - - -
21/07:00pm 30.1 N 7 11 1008.0 - 0.0 - Partly cloudy - - - - -
21/06:30pm 30.9 NNW 9 14 1008.3 - 0.0 - Partly cloudy 10 - - - -
21/06:00pm 31.0 NNW 9 13 1008.1 - 0.0 - - 10 - - - -
21/05:30pm 32.2 NNW 9 13 1007.7 - 0.0 - - 10 - - - -
21/05:00pm 32.5 NNW 9 13 1007.5 - 0.0 - - 10 - - - -
21/04:30pm 32.8 NNW 9 12 1007.3 - 0.0 - - 10 - - - -
21/04:00pm 33.2 NNW 11 16 1007.9 - 0.0 - - 10 - - - -
21/03:30pm 33.0 N 11 16 1008.1 - 0.0 - - 10 - - - -
21/03:00pm 33.0 N 11 17 1008.0 - 0.0 - - 10 - - - -
21/02:30pm 34.0 N 11 15 1007.9 - 0.0 - - 8 - - - -
21/02:00pm 35.7 N 9 14 1008.4 - 0.0 - - 10 - - - -
21/01:30pm 35.7 WNW 8 13 1008.1 - 0.0 - - 10 - - - -
21/01:00pm 35.3 W 7 11 1009.0 - 0.0 - - 10 - - - -
21/12:30pm 34.3 WNW 6 10 1009.7 - 0.0 - - 10 - - - -
21/12:00pm 34.6 W 6 13 1010.2 - 0.0 - - 10 - - - -
21/11:30am 33.0 WNW 6 10 1010.7 - 0.0 - Partly cloudy 10 - - - -
21/11:00am 33.1 W 7 11 1010.9 - 0.0 - Partly cloudy 10 - - - -
21/10:30am 32.3 WNW 6 9 1010.5 - 0.6 - Mostly clear 10 - - - -
21/10:00am 32.1 WNW 6 9 1011.2 - 0.6 - Partly cloudy 10 - - - -
21/09:30am 31.4 WNW 6 9 1011.0 - 0.6 - Partly cloudy 10 - - - -
21/09:05am 30.9 W 6 9 1011.0 - 0.6 - Partly cloudy 10 - - - -
21/09:00am 30.9 W 6 9 1010.9 - 0.6 - Partly cloudy 10 - - - -
21/08:30am 30.1 W 7 9 1010.8 - 0.6 - Partly cloudy 10 - - - -
21/08:25am 30.0 W 7 9 1010.9 - 0.6 - Partly cloudy 10 - - - -
21/08:00am 29.8 W 7 9 1010.5 - 0.6 - Partly cloudy 10 - - - -
21/07:54am 29.7 W 6 8 1010.4 - 0.6 - Partly cloudy 10 - - - -
21/07:30am 29.1 W 4 6 1009.6 - 0.6 - Mostly cloudy 10 - - - -
21/07:18am 28.8 W 3 5 1010.0 - 0.6 - Partly cloudy 10 - - - -

Other Formats:

Comma delimited format used in spreadsheet applications
http://www.bom.gov.au/fwo/IDD60701/IDD60701.95101.axf

JavaScript Object Notation format (JSON) in row-major order
http://www.bom.gov.au/fwo/IDD60701/IDD60701.95101.json